createdAt,value
2019-05-13T00:01:54.857Z,103004.13
2019-05-13T00:04:24.112Z,103001.44
2019-05-13T00:06:54.378Z,103011.02
2019-05-13T00:09:19.670Z,103010.36
2019-05-13T00:11:46.636Z,103009.17
2019-05-13T00:14:13.627Z,103005.81
2019-05-13T00:16:40.591Z,103007.16
2019-05-13T00:19:07.577Z,103015.84
2019-05-13T00:21:34.514Z,103015.53
2019-05-13T00:24:03.920Z,103012.73
2019-05-13T00:26:30.827Z,103013.30
2019-05-13T00:28:57.808Z,103003.20
2019-05-13T00:31:24.751Z,103010.31
2019-05-13T00:33:53.228Z,103010.15
2019-05-13T00:36:20.391Z,103013.59
2019-05-13T00:38:47.394Z,103017.13
2019-05-13T00:41:14.378Z,103017.03
2019-05-13T00:43:41.375Z,103017.23
2019-05-13T00:46:08.332Z,103021.22
2019-05-13T00:48:35.314Z,103023.55
2019-05-13T00:51:03.708Z,103016.48
2019-05-13T00:53:31.010Z,103016.34
2019-05-13T00:55:57.956Z,103022.55
2019-05-13T00:58:24.906Z,103026.72
2019-05-13T01:00:54.421Z,103029.06
2019-05-13T01:03:20.755Z,103023.03
2019-05-13T01:05:47.748Z,103021.07
2019-05-13T01:08:14.844Z,103020.14
2019-05-13T01:10:41.801Z,103021.79
2019-05-13T01:13:08.768Z,103022.25
2019-05-13T01:15:35.764Z,103019.12
2019-05-13T01:18:03.919Z,103012.10
2019-05-13T01:20:31.381Z,103018.91
2019-05-13T01:22:58.327Z,103020.81
2019-05-13T01:25:25.313Z,103024.59
2019-05-13T01:27:53.778Z,103023.41
2019-05-13T01:30:21.154Z,103017.89
2019-05-13T01:32:48.103Z,103021.28
2019-05-13T01:35:15.120Z,103018.06
2019-05-13T01:37:43.410Z,103017.02
2019-05-13T01:40:10.954Z,103014.42
2019-05-13T01:42:37.953Z,103015.48
2019-05-13T01:45:05.112Z,103013.66
2019-05-13T01:47:34.408Z,103023.53
2019-05-13T01:50:03.968Z,103023.17
2019-05-13T01:52:30.639Z,103023.91
2019-05-13T01:54:57.619Z,103029.33
2019-05-13T01:57:24.566Z,103023.22
2019-05-13T01:59:53.643Z,103028.30
2019-05-13T02:02:20.375Z,103029.70
2019-05-13T02:04:47.338Z,103027.78
2019-05-13T02:07:14.492Z,103023.92
2019-05-13T02:09:44.185Z,103029.86
2019-05-13T02:12:10.724Z,103028.80
2019-05-13T02:14:37.704Z,103023.45
2019-05-13T02:17:04.655Z,103015.98
2019-05-13T02:19:33.574Z,103016.28
2019-05-13T02:22:00.431Z,103021.80
2019-05-13T02:24:27.401Z,103026.54
2019-05-13T02:26:54.462Z,103037.23
2019-05-13T02:29:21.387Z,103034.48
2019-05-13T02:31:55.130Z,103046.01
2019-05-13T02:34:17.188Z,103043.00
2019-05-13T02:36:44.173Z,103046.50
2019-05-13T02:39:12.893Z,103039.56
2019-05-13T02:41:42.912Z,103040.94
2019-05-13T02:44:11.998Z,103045.84
2019-05-13T02:46:37.742Z,103048.34
2019-05-13T02:49:04.670Z,103047.72
2019-05-13T02:51:32.829Z,103044.88
2019-05-13T02:54:03.262Z,103045.84
2019-05-13T02:56:28.943Z,103051.77
2019-05-13T02:58:55.879Z,103049.34
2019-05-13T03:01:22.873Z,103052.34
2019-05-13T03:03:52.823Z,103054.18
2019-05-13T03:06:18.719Z,103058.91
2019-05-13T03:08:49.788Z,103063.05
2019-05-13T03:11:14.517Z,103057.95
2019-05-13T03:13:42.553Z,103057.95
2019-05-13T03:16:16.026Z,103056.33
2019-05-13T03:18:43.705Z,103055.60
2019-05-13T03:21:12.791Z,103061.61
2019-05-13T03:23:43.597Z,103060.18
2019-05-13T03:26:08.748Z,103073.80
2019-05-13T03:28:35.664Z,103072.55
2019-05-13T03:31:06.223Z,103080.52
2019-05-13T03:33:36.811Z,103081.89
2019-05-13T03:36:06.464Z,103078.95
2019-05-13T03:38:33.284Z,103088.26
2019-05-13T03:41:03.249Z,103091.89
2019-05-13T03:43:32.673Z,103091.67
2019-05-13T03:46:04.982Z,103090.77
2019-05-13T03:48:34.336Z,103090.27
2019-05-13T03:51:03.318Z,103089.20
2019-05-13T03:53:32.559Z,103096.03
2019-05-13T03:56:02.580Z,103094.73
2019-05-13T03:58:32.351Z,103096.89
2019-05-13T04:01:02.480Z,103095.70
2019-05-13T04:03:28.025Z,103098.98
2019-05-13T04:05:54.976Z,103101.13
2019-05-13T04:08:22.943Z,103098.12
2019-05-13T04:10:52.474Z,103102.28
2019-05-13T04:13:23.006Z,103104.05
2019-05-13T04:15:52.648Z,103095.57
2019-05-13T04:18:18.624Z,103100.48
2019-05-13T04:20:45.548Z,103097.14
2019-05-13T04:23:13.003Z,103100.80
2019-05-13T04:25:44.539Z,103111.67
2019-05-13T04:28:09.203Z,103101.42
2019-05-13T04:30:36.233Z,103105.73
2019-05-13T04:33:03.210Z,103112.22
2019-05-13T04:35:32.416Z,103108.19
2019-05-13T04:37:59.006Z,103102.10
2019-05-13T04:40:25.933Z,103115.30
2019-05-13T04:42:53.832Z,103107.91
2019-05-13T04:45:23.846Z,103108.36
2019-05-13T04:47:52.964Z,103119.14
2019-05-13T04:50:22.066Z,103123.40
2019-05-13T04:52:47.786Z,103128.73
2019-05-13T04:55:14.716Z,103132.16
2019-05-13T04:57:42.523Z,103132.28
2019-05-13T05:00:12.841Z,103131.28
2019-05-13T05:03:05.201Z,103137.95
2019-05-13T05:06:03.352Z,103127.52
2019-05-13T05:08:58.671Z,103127.06
2019-05-13T05:12:09.342Z,103128.33
2019-05-13T05:15:20.167Z,103133.33
2019-05-13T05:18:52.625Z,103129.02
2019-05-13T05:21:24.818Z,103131.33
2019-05-13T05:24:22.325Z,103132.45
2019-05-13T05:27:42.019Z,103138.86
2019-05-13T05:30:51.853Z,103140.06
2019-05-13T05:33:51.715Z,103147.89
2019-05-13T05:36:56.799Z,103152.41
2019-05-13T05:39:24.964Z,103160.20
2019-05-13T05:41:55.164Z,103151.64
2019-05-13T05:44:24.712Z,103155.82
2019-05-13T05:46:54.673Z,103169.30
2019-05-13T05:49:24.552Z,103150.19
2019-05-13T05:52:01.701Z,103155.26
2019-05-13T05:54:32.224Z,103159.48
2019-05-13T05:57:01.260Z,103154.28
2019-05-13T05:59:28.959Z,103154.89
2019-05-13T06:01:57.095Z,103142.84
2019-05-13T06:04:24.794Z,103146.84
2019-05-13T06:06:53.776Z,103148.61
2019-05-13T06:09:21.386Z,103148.93
2019-05-13T06:11:48.488Z,103148.08
2019-05-13T06:14:15.446Z,103149.82
2019-05-13T06:16:42.683Z,103144.63
2019-05-13T06:19:12.134Z,103144.39
2019-05-13T06:21:38.902Z,103142.61
2019-05-13T06:24:05.861Z,103136.11
2019-05-13T06:26:32.789Z,103136.68
2019-05-13T06:29:02.529Z,103133.11
2019-05-13T06:31:28.998Z,103139.44
2019-05-13T06:33:55.968Z,103139.97
2019-05-13T06:36:22.969Z,103147.09
2019-05-13T06:38:51.366Z,103147.81
2019-05-13T06:41:18.364Z,103143.84
2019-05-13T06:43:45.340Z,103144.77
2019-05-13T06:46:12.494Z,103146.43
2019-05-13T06:48:41.514Z,103145.78
2019-05-13T06:51:08.388Z,103144.03
2019-05-13T06:53:35.329Z,103139.59
2019-05-13T06:56:02.319Z,103144.20
2019-05-13T06:58:29.264Z,103146.81
2019-05-13T07:00:57.989Z,103140.86
2019-05-13T07:03:25.079Z,103137.23
2019-05-13T07:05:52.557Z,103143.41
2019-05-13T07:08:22.021Z,103135.73
2019-05-13T07:10:48.549Z,103141.78
2019-05-13T07:13:15.479Z,103140.03
2019-05-13T07:15:42.548Z,103138.36
2019-05-13T07:18:11.679Z,103143.84
2019-05-13T07:20:38.361Z,103144.95
2019-05-13T07:23:05.332Z,103142.56
2019-05-13T07:25:32.782Z,103147.06
2019-05-13T07:28:02.150Z,103142.49
2019-05-13T07:30:37.644Z,103147.98
2019-05-13T07:33:04.584Z,103149.14
2019-05-13T07:35:37.551Z,103140.92
2019-05-13T07:38:02.178Z,103142.24
2019-05-13T07:40:32.065Z,103140.20
2019-05-13T07:42:58.319Z,103142.76
2019-05-13T07:45:25.271Z,103141.25
2019-05-13T07:47:52.231Z,103136.11
2019-05-13T07:50:21.665Z,103137.34
2019-05-13T07:52:48.097Z,103142.17
2019-05-13T07:55:15.058Z,103138.21
2019-05-13T07:57:42.498Z,103144.89
2019-05-13T08:00:12.451Z,103135.78
2019-05-13T08:02:41.683Z,103133.80
2019-05-13T08:05:08.601Z,103140.39
2019-05-13T08:07:35.530Z,103134.02
2019-05-13T08:10:03.707Z,103131.45
2019-05-13T08:12:31.980Z,103124.03
2019-05-13T08:14:59.039Z,103119.50
2019-05-13T08:17:25.978Z,103127.67
2019-05-13T08:19:52.945Z,103127.40
2019-05-13T08:22:22.109Z,103127.74
2019-05-13T08:24:51.910Z,103135.94
2019-05-13T08:27:24.084Z,103132.00
2019-05-13T08:29:46.495Z,103131.88
2019-05-13T08:32:13.458Z,103127.94
2019-05-13T08:34:41.764Z,103129.75
2019-05-13T08:37:11.230Z,103129.54
2019-05-13T08:39:38.556Z,103128.63
2019-05-13T08:42:15.162Z,103131.76
2019-05-13T08:44:34.706Z,103130.73
2019-05-13T08:47:03.212Z,103132.10
2019-05-13T08:49:32.506Z,103123.40
2019-05-13T08:52:01.646Z,103123.36
2019-05-13T08:54:28.225Z,103124.27
2019-05-13T08:56:55.192Z,103127.83
2019-05-13T08:59:22.357Z,103128.41
2019-05-13T09:01:51.765Z,103125.92
2019-05-13T09:04:18.226Z,103131.17
2019-05-13T09:06:45.316Z,103127.87
2019-05-13T09:09:12.302Z,103123.27
2019-05-13T09:11:39.259Z,103118.09
2019-05-13T09:14:06.305Z,103118.31
2019-05-13T09:16:33.251Z,103119.30
2019-05-13T09:19:03.650Z,103125.05
2019-05-13T09:21:31.640Z,103120.09
2019-05-13T09:23:57.871Z,103115.89
2019-05-13T09:26:24.871Z,103109.46
2019-05-13T09:28:52.243Z,103110.77
2019-05-13T09:31:21.852Z,103113.84
2019-05-13T09:33:48.127Z,103115.16
2019-05-13T09:36:15.131Z,103114.78
2019-05-13T09:38:42.636Z,103111.70
2019-05-13T09:41:12.145Z,103115.27
2019-05-13T09:43:38.505Z,103116.56
2019-05-13T09:46:06.603Z,103122.28
2019-05-13T09:48:33.544Z,103120.06
2019-05-13T09:51:02.384Z,103110.45
2019-05-13T09:53:29.483Z,103114.84
2019-05-13T09:55:56.453Z,103110.44
2019-05-13T09:58:23.761Z,103117.05
2019-05-13T10:00:52.601Z,103117.05
2019-05-13T10:03:26.638Z,103113.08
2019-05-13T10:05:51.472Z,103117.91
2019-05-13T10:08:17.565Z,103113.97
2019-05-13T10:10:44.470Z,103106.06
2019-05-13T10:13:14.899Z,103115.27
2019-05-13T10:15:42.018Z,103110.89
2019-05-13T10:18:09.141Z,103106.50
2019-05-13T10:20:45.605Z,103105.16
2019-05-13T10:23:13.431Z,103103.37
2019-05-13T10:25:41.033Z,103102.44
2019-05-13T10:28:08.309Z,103094.93
2019-05-13T10:30:35.359Z,103099.75
2019-05-13T10:33:03.022Z,103098.39
2019-05-13T10:35:31.686Z,103094.91
2019-05-13T10:37:59.252Z,103096.69
2019-05-13T10:40:26.191Z,103093.63
2019-05-13T10:42:53.213Z,103091.82
2019-05-13T10:45:22.324Z,103093.89
2019-05-13T10:47:51.442Z,103084.03
2019-05-13T10:50:17.911Z,103092.10
2019-05-13T10:52:45.155Z,103087.16
2019-05-13T10:55:13.094Z,103081.86
2019-05-13T10:57:42.418Z,103084.08
2019-05-13T11:00:11.994Z,103081.17
2019-05-13T11:02:38.628Z,103078.25
2019-05-13T11:05:06.090Z,103071.05
2019-05-13T11:07:33.047Z,103078.36
2019-05-13T11:10:00.100Z,103076.45
2019-05-13T11:12:28.881Z,103064.80
2019-05-13T11:14:55.804Z,103055.66
2019-05-13T11:17:30.650Z,103051.58
2019-05-13T11:19:51.664Z,103060.64
2019-05-13T11:22:18.651Z,103054.44
2019-05-13T11:24:45.604Z,103052.48
2019-05-13T11:27:12.571Z,103024.52
2019-05-13T11:29:41.452Z,103062.08
2019-05-13T11:32:08.445Z,103051.20
2019-05-13T11:34:35.451Z,103052.79
2019-05-13T11:37:03.712Z,103046.87
2019-05-13T11:39:32.555Z,103051.00
2019-05-13T11:42:02.384Z,103040.78
2019-05-13T11:44:31.955Z,103036.08
2019-05-13T11:46:58.298Z,103033.33
2019-05-13T11:49:25.479Z,103034.46
2019-05-13T11:51:52.434Z,103025.97
2019-05-13T11:54:22.351Z,103030.70
2019-05-13T11:59:28.648Z,103027.32
2019-05-13T12:01:55.600Z,103027.51
2019-05-13T12:04:24.098Z,103025.98
2019-05-13T12:06:54.677Z,103015.30
2019-05-13T12:09:22.259Z,103012.23
2019-05-13T12:11:49.204Z,103006.05
2019-05-13T12:14:39.133Z,103013.18
2019-05-13T12:16:45.032Z,103006.27
2019-05-13T12:19:12.150Z,102997.73
2019-05-13T12:21:43.311Z,102991.03
2019-05-13T12:24:11.142Z,102992.14
2019-05-13T12:26:36.945Z,102981.23
2019-05-13T12:29:03.989Z,102990.76
2019-05-13T12:31:33.612Z,102994.22
2019-05-13T12:34:02.859Z,102989.66
2019-05-13T12:36:28.879Z,102984.27
2019-05-13T12:38:55.867Z,102980.09
2019-05-13T12:41:23.225Z,102987.98
2019-05-13T12:43:53.609Z,102984.34
2019-05-13T12:46:19.384Z,102986.96
2019-05-13T12:48:46.551Z,102977.36
2019-05-13T12:51:13.593Z,102969.03
2019-05-13T12:53:43.411Z,102974.52
2019-05-13T12:56:12.567Z,102962.80
2019-05-13T12:58:38.697Z,102963.70
2019-05-13T13:01:05.669Z,102956.60
2019-05-13T13:03:32.730Z,102967.71
2019-05-13T13:06:24.630Z,102964.45
2019-05-13T13:08:41.118Z,102959.88
2019-05-13T13:10:57.443Z,102958.30
2019-05-13T13:13:52.478Z,102960.32
2019-05-13T13:15:53.364Z,102960.06
2019-05-13T13:18:22.441Z,102945.47
2019-05-13T13:20:58.002Z,102939.38
2019-05-13T13:23:18.198Z,102933.27
2019-05-13T13:25:52.660Z,102937.61
2019-05-13T13:28:15.424Z,102941.65
2019-05-13T13:30:44.162Z,102918.05
2019-05-13T13:33:15.130Z,102928.70
2019-05-13T13:35:45.280Z,102934.19
2019-05-13T13:38:09.413Z,102928.73
2019-05-13T13:40:36.998Z,102929.56
2019-05-13T13:43:05.471Z,102927.75
2019-05-13T13:45:52.102Z,102930.18
2019-05-13T13:48:03.921Z,102924.97
2019-05-13T13:50:33.542Z,102922.11
2019-05-13T13:52:59.442Z,102913.99
2019-05-13T13:55:26.473Z,102909.87
2019-05-13T13:57:56.712Z,102915.31
2019-05-13T14:00:38.159Z,102912.09
2019-05-13T14:02:54.250Z,102905.95
2019-05-13T14:05:24.682Z,102913.44
2019-05-13T14:07:52.056Z,102903.50
2019-05-13T14:10:19.153Z,102902.75
2019-05-13T14:12:46.101Z,102905.38
2019-05-13T14:15:13.295Z,102899.34
2019-05-13T14:17:41.837Z,102898.53
2019-05-13T14:20:09.396Z,102896.56
2019-05-13T14:22:36.385Z,102889.47
2019-05-13T14:25:03.923Z,102892.15
2019-05-13T14:27:31.434Z,102893.56
2019-05-13T14:29:58.526Z,102885.45
2019-05-13T14:32:27.618Z,102887.95
2019-05-13T14:34:54.602Z,102884.00
2019-05-13T14:37:22.462Z,102874.16
2019-05-13T14:39:49.660Z,102872.23
2019-05-13T14:42:16.667Z,102867.48
2019-05-13T14:44:43.604Z,102859.80
2019-05-13T14:47:12.489Z,102861.70
2019-05-13T14:49:42.097Z,102851.09
2019-05-13T14:52:08.288Z,102854.27
2019-05-13T14:54:35.420Z,102858.98
2019-05-13T14:57:02.615Z,102855.50
2019-05-13T14:59:31.434Z,102851.91
2019-05-13T15:01:58.431Z,102849.48
2019-05-13T15:04:25.353Z,102855.66
2019-05-13T15:06:52.351Z,102854.97
2019-05-13T15:09:19.326Z,102861.31
2019-05-13T15:11:46.411Z,102858.84
2019-05-13T15:14:13.348Z,102866.72
2019-05-13T15:16:42.519Z,102848.45
2019-05-13T15:19:11.311Z,102847.61
2019-05-13T15:21:38.054Z,102843.91
2019-05-13T15:24:05.384Z,102843.02
2019-05-13T15:26:32.391Z,102849.87
2019-05-13T15:29:02.609Z,102845.98
2019-05-13T15:31:28.431Z,102841.80
2019-05-13T15:33:55.401Z,102831.85
2019-05-13T15:36:22.747Z,102839.92
2019-05-13T15:38:52.846Z,102830.11
2019-05-13T15:41:20.412Z,102837.06
2019-05-13T15:43:47.369Z,102833.05
2019-05-13T15:46:14.547Z,102823.09
2019-05-13T15:48:42.289Z,102823.27
2019-05-13T15:51:11.266Z,102818.92
2019-05-13T15:53:38.361Z,102823.42
2019-05-13T15:56:05.338Z,102829.87
2019-05-13T15:58:39.144Z,102816.86
2019-05-13T16:01:02.912Z,102809.95
2019-05-13T16:03:30.049Z,102826.97
2019-05-13T16:05:57.071Z,102821.03
2019-05-13T16:08:24.037Z,102819.20
2019-05-13T16:10:53.274Z,102820.76
2019-05-13T16:13:22.125Z,102825.54
2019-05-13T16:15:48.665Z,102815.56
2019-05-13T16:18:15.954Z,102826.20
2019-05-13T16:20:45.356Z,102811.67
2019-05-13T16:23:12.333Z,102801.02
2019-05-13T16:25:41.624Z,102812.07
2019-05-13T16:28:08.407Z,102815.52
2019-05-13T16:30:35.350Z,102820.27
2019-05-13T16:33:02.978Z,102804.48
2019-05-13T16:35:31.914Z,102805.19
2019-05-13T16:37:59.004Z,102807.41
2019-05-13T16:40:26.132Z,102809.95
2019-05-13T16:42:53.124Z,102811.52
2019-05-13T16:45:21.844Z,102809.77
2019-05-13T16:47:57.786Z,102814.88
2019-05-13T16:50:18.248Z,102816.91
2019-05-13T16:52:45.244Z,102811.91
2019-05-13T16:55:13.054Z,102816.14
2019-05-13T16:57:42.184Z,102815.44
2019-05-13T17:00:10.535Z,102813.25
2019-05-13T17:02:37.522Z,102813.86
2019-05-13T17:05:04.724Z,102804.67
2019-05-13T17:07:31.872Z,102807.19
2019-05-13T17:10:01.117Z,102811.14
2019-05-13T17:12:27.700Z,102803.80
2019-05-13T17:14:54.636Z,102808.25
2019-05-13T17:17:21.614Z,102805.87
2019-05-13T17:19:53.125Z,102801.39
2019-05-13T17:22:17.854Z,102794.72
2019-05-13T17:24:44.830Z,102804.55
2019-05-13T17:27:12.249Z,102799.87
2019-05-13T17:29:39.249Z,102800.70
2019-05-13T17:32:06.229Z,102788.27
2019-05-13T17:34:33.174Z,102791.33
2019-05-13T17:37:02.532Z,102800.45
2019-05-13T17:39:29.026Z,102801.81
2019-05-13T17:41:55.975Z,102804.09
2019-05-13T17:44:22.991Z,102801.64
2019-05-13T17:46:52.054Z,102800.39
2019-05-13T17:49:18.843Z,102791.52
2019-05-13T17:51:45.772Z,102798.95
2019-05-13T17:54:12.749Z,102805.23
2019-05-13T17:56:39.717Z,102803.08
2019-05-13T17:59:06.692Z,102798.70
2019-05-13T18:01:33.639Z,102796.23
2019-05-13T18:04:02.533Z,102799.69
2019-05-13T18:06:29.484Z,102802.45
2019-05-13T18:08:56.452Z,102793.28
2019-05-13T18:11:23.376Z,102790.64
2019-05-13T18:13:51.839Z,102785.33
2019-05-13T18:16:21.920Z,102789.75
2019-05-13T18:18:48.875Z,102794.36
2019-05-13T18:21:15.808Z,102790.46
2019-05-13T18:23:42.771Z,102791.33
2019-05-13T18:26:11.830Z,102802.79
2019-05-13T18:28:38.581Z,102791.47
2019-05-13T18:31:05.516Z,102796.77
2019-05-13T18:33:32.475Z,102797.30
2019-05-13T18:36:01.538Z,102801.30
2019-05-13T18:38:28.260Z,102803.50
2019-05-13T18:40:55.192Z,102802.08
2019-05-13T18:43:22.218Z,102807.80
2019-05-13T18:45:49.360Z,102808.70
2019-05-13T18:48:16.433Z,102817.53
2019-05-13T18:50:43.481Z,102815.86
2019-05-13T18:53:10.589Z,102826.87
2019-05-13T18:55:37.537Z,102820.75
2019-05-13T18:58:04.599Z,102817.69
2019-05-13T19:00:32.258Z,102818.57
2019-05-13T19:03:01.285Z,102821.25
2019-05-13T19:05:28.202Z,102815.56
2019-05-13T19:07:55.232Z,102819.95
2019-05-13T19:10:22.223Z,102820.42
2019-05-13T19:12:49.166Z,102823.47
2019-05-13T19:15:17.137Z,102831.36
2019-05-13T19:17:44.078Z,102835.75
2019-05-13T19:20:11.693Z,102834.00
2019-05-13T19:22:41.111Z,102830.50
2019-05-13T19:25:07.853Z,102838.39
2019-05-13T19:27:34.884Z,102843.18
2019-05-13T19:30:01.940Z,102846.27
2019-05-13T19:32:28.917Z,102847.56
2019-05-13T19:34:55.966Z,102851.48
2019-05-13T19:37:22.917Z,102850.59
2019-05-13T19:39:49.880Z,102852.26
2019-05-13T19:42:16.860Z,102849.63
2019-05-13T19:44:43.926Z,102853.13
2019-05-13T19:47:12.395Z,102855.27
2019-05-13T19:49:44.150Z,102849.17
2019-05-13T19:52:08.481Z,102854.00
2019-05-13T19:54:35.670Z,102854.81
2019-05-13T19:57:02.607Z,102851.27
2019-05-13T19:59:32.041Z,102848.64
2019-05-13T20:01:58.514Z,102859.91
2019-05-13T20:04:25.498Z,102850.34
2019-05-13T20:06:52.508Z,102858.97
2019-05-13T20:09:21.533Z,102857.21
2019-05-13T20:11:48.454Z,102865.05
2019-05-13T20:14:15.478Z,102861.52
2019-05-13T20:16:42.587Z,102865.86
2019-05-13T20:19:11.681Z,102867.50
2019-05-13T20:21:38.449Z,102875.30
2019-05-13T20:24:05.601Z,102873.91
2019-05-13T20:26:35.514Z,102873.52
2019-05-13T20:29:02.041Z,102871.64
2019-05-13T20:31:28.955Z,102869.88
2019-05-13T20:33:55.918Z,102874.55
2019-05-13T20:36:22.957Z,102875.83
2019-05-13T20:38:51.548Z,102874.11
2019-05-13T20:41:18.773Z,102875.73
2019-05-13T20:43:45.738Z,102880.42
2019-05-13T20:46:12.712Z,102873.02
2019-05-13T20:48:41.152Z,102882.94
2019-05-13T20:51:08.352Z,102875.13
2019-05-13T20:53:35.314Z,102880.03
2019-05-13T20:56:02.283Z,102882.08
2019-05-13T20:58:31.581Z,102888.22
2019-05-13T21:00:58.220Z,102886.83
2019-05-13T21:03:25.165Z,102885.45
2019-05-13T21:05:52.205Z,102883.78
2019-05-13T21:08:21.522Z,102878.78
2019-05-13T21:10:48.040Z,102881.74
2019-05-13T21:13:15.045Z,102886.44
2019-05-13T21:15:42.564Z,102886.05
2019-05-13T21:18:11.471Z,102877.16
2019-05-13T21:20:38.457Z,102878.51
2019-05-13T21:23:05.416Z,102882.77
2019-05-13T21:25:32.399Z,102877.50
2019-05-13T21:27:59.334Z,102879.19
2019-05-13T21:30:26.292Z,102882.42
2019-05-13T21:32:53.225Z,102884.06
2019-05-13T21:35:21.183Z,102874.11
2019-05-13T21:37:48.522Z,102876.18
2019-05-13T21:40:17.099Z,102882.12
2019-05-13T21:42:44.171Z,102894.63
2019-05-13T21:45:11.400Z,102887.98
2019-05-13T21:47:38.399Z,102887.98
2019-05-13T21:50:06.179Z,102887.66
2019-05-13T21:52:33.115Z,102889.73
2019-05-13T21:55:01.896Z,102884.70
2019-05-13T21:57:32.924Z,102882.05
2019-05-13T21:59:57.822Z,102882.55
2019-05-13T22:02:24.786Z,102883.89
2019-05-13T22:04:51.994Z,102885.58
2019-05-13T22:07:18.942Z,102887.50
2019-05-13T22:09:46.007Z,102887.94
2019-05-13T22:12:13.011Z,102884.33
2019-05-13T22:14:41.218Z,102883.91
2019-05-13T22:17:08.328Z,102884.27
2019-05-13T22:19:35.278Z,102878.36
2019-05-13T22:22:02.592Z,102879.61
2019-05-13T22:24:31.217Z,102870.78
2019-05-13T22:26:58.355Z,102870.22
2019-05-13T22:29:25.289Z,102864.47
2019-05-13T22:31:52.258Z,102866.20
2019-05-13T22:34:21.129Z,102863.71
2019-05-13T22:36:48.103Z,102861.91
2019-05-13T22:39:15.189Z,102844.53
2019-05-13T22:41:42.335Z,102857.56
2019-05-13T22:44:11.398Z,102851.43
2019-05-13T22:46:38.558Z,102852.67
2019-05-13T22:49:05.505Z,102854.53
2019-05-13T22:51:32.480Z,102855.06
2019-05-13T22:53:59.413Z,102852.48
2019-05-13T22:56:26.363Z,102854.16
2019-05-13T22:58:53.291Z,102857.42
2019-05-13T23:01:21.862Z,102862.08
2019-05-13T23:03:51.362Z,102862.34
2019-05-13T23:06:17.999Z,102859.48
2019-05-13T23:08:45.023Z,102861.66
2019-05-13T23:11:11.985Z,102861.64
2019-05-13T23:13:38.974Z,102854.64
2019-05-13T23:16:05.947Z,102849.05
2019-05-13T23:18:32.877Z,102842.59
2019-05-13T23:21:02.076Z,102838.47
2019-05-13T23:23:28.672Z,102842.50
2019-05-13T23:25:57.012Z,102847.41
2019-05-13T23:28:24.091Z,102841.05
2019-05-13T23:30:51.264Z,102842.59
2019-05-13T23:33:18.419Z,102840.41
2019-05-13T23:35:45.427Z,102846.55
2019-05-13T23:38:12.410Z,102846.13
2019-05-13T23:40:39.557Z,102846.37
2019-05-13T23:43:06.547Z,102851.18
2019-05-13T23:45:33.496Z,102841.44
2019-05-13T23:48:01.597Z,102836.20
2019-05-13T23:50:28.710Z,102841.05
2019-05-13T23:52:55.660Z,102840.12
2019-05-13T23:55:22.681Z,102848.82
2019-05-13T23:57:49.679Z,102846.80
